Main page
METAR-TAF:

METAR-TAF

Airports :

Phetchabun Airport

Phetchabun, Thailand

latitude: 16-40-33N, longitude: 101-11-42E, elevation: 137 m

Current weather observation

The report was made 44 minutes ago, at 10:00 UTC
Wind 6 kt from the North, varying between West/Northwest and North/Northeast
Temperature 34°C
Humidity 25%
Pressure 1012 hPa
Visibility: 7000 m

METAR: VTPB 201000Z 35006KT 300V030 7000 NSC 34/11 Q1012 NOSIG

Time: 17:44 (10:44 UTC)

Forecast

The report was made 5 hours and 44 minutes ago, at 05:00 UTC
Forecast valid from 20 at 06 UTC to 21 at 06 UTC
Wind 8 kt from the North
Visibility: 6000 m

TAF: VTPB 200500Z 2006/2106 01008KT 6000 NSC

Weather observations and forecasts of more than 4000 airports (METAR and TAF reports).

The available stations are represented by yellow and red dots on the map.

Hover mouse over dot to see the name of the station.

Then click to see weather observations and forecasts.

To change the map : click on the green buttons with a black cross to zoom in, on the green button with a dash to zoom out, or on the green arrows for adjacent maps.


METAR-TAF: